createdAt,value
2022-10-06T12:30:06.848Z,4.93
2022-10-06T13:20:39.591Z,5.32
2022-10-06T13:23:27.669Z,7.85
2022-10-06T13:28:47.073Z,3.83
2022-10-06T13:36:28.745Z,3.47
2022-10-06T13:44:04.545Z,7.38
2022-10-06T13:46:42.134Z,5.72
2022-10-06T13:54:29.443Z,8.95
2022-10-06T13:56:59.312Z,7.95
2022-10-06T14:05:30.277Z,6.00
2022-10-06T14:08:02.712Z,5.15
2022-10-06T14:18:24.284Z,6.47
2022-10-06T14:20:57.047Z,6.25
2022-10-06T14:23:51.502Z,7.05
2022-10-06T14:26:27.665Z,8.52
2022-10-06T14:49:08.389Z,5.50
2022-10-06T16:02:23.716Z,6.05
2022-10-06T16:17:44.413Z,5.55
2022-10-06T17:42:48.657Z,28.75
2022-10-06T17:45:21.426Z,32.10
2022-10-06T17:50:21.121Z,26.95
2022-10-06T17:55:19.676Z,15.30
2022-10-06T17:57:49.067Z,11.63
2022-10-06T18:18:25.086Z,9.23
2022-10-06T19:01:51.893Z,15.80
2022-10-06T19:06:55.082Z,15.18
2022-10-06T19:57:44.960Z,13.85
2022-10-06T20:17:47.835Z,11.35
2022-10-06T20:20:18.796Z,11.88
2022-10-06T20:22:49.717Z,11.48
2022-10-06T20:40:33.957Z,13.43
2022-10-06T20:50:32.255Z,17.77
2022-10-06T20:53:01.749Z,16.70
2022-10-06T20:55:31.332Z,17.17
2022-10-06T20:58:00.835Z,19.77
2022-10-06T21:02:59.447Z,19.13
2022-10-06T21:05:33.111Z,17.17
2022-10-06T21:18:28.664Z,16.00
2022-10-06T21:23:37.759Z,17.02
2022-10-06T21:28:39.609Z,14.27
2022-10-06T21:31:15.486Z,16.85
2022-10-06T21:33:46.665Z,12.10
2022-10-06T21:36:22.714Z,14.40
2022-10-06T21:38:55.078Z,12.38
2022-10-06T21:44:06.807Z,15.30
2022-10-06T21:46:40.432Z,14.75
2022-10-06T21:49:13.682Z,13.93
2022-10-06T21:51:48.861Z,14.25
2022-10-06T21:54:19.755Z,15.57
2022-10-06T21:56:49.978Z,12.93
2022-10-06T21:59:20.174Z,12.45
2022-10-06T22:01:50.881Z,12.80
2022-10-06T22:04:22.131Z,13.30
2022-10-06T22:06:53.509Z,12.10
2022-10-06T22:09:23.085Z,14.43
2022-10-06T22:11:52.576Z,14.70
2022-10-06T22:14:22.133Z,11.43
2022-10-06T22:16:54.084Z,13.77
2022-10-06T22:19:23.953Z,14.77
2022-10-06T22:21:55.872Z,12.63
2022-10-06T22:24:25.528Z,11.60
2022-10-06T22:26:55.152Z,13.25
2022-10-06T22:29:25.494Z,13.35
2022-10-06T22:31:55.907Z,18.02
2022-10-06T22:34:25.920Z,14.05
2022-10-06T22:36:56.679Z,14.95
2022-10-06T22:39:26.190Z,12.05
2022-10-06T22:41:55.595Z,14.60
2022-10-06T22:44:24.924Z,15.30
2022-10-06T22:46:54.321Z,16.95
2022-10-06T22:49:23.697Z,17.15
2022-10-06T22:51:53.064Z,15.80
2022-10-06T22:54:25.853Z,14.35
2022-10-06T22:56:55.196Z,17.42
2022-10-06T22:59:24.729Z,16.00
2022-10-06T23:01:54.438Z,17.15
2022-10-06T23:04:23.787Z,14.18
2022-10-06T23:06:53.227Z,16.02
2022-10-06T23:09:24.024Z,12.57
2022-10-06T23:11:53.392Z,11.82
2022-10-06T23:14:22.979Z,11.98
2022-10-06T23:16:52.383Z,13.65
2022-10-06T23:19:21.752Z,12.18
2022-10-06T23:21:51.160Z,10.95
2022-10-06T23:24:20.521Z,11.63
2022-10-06T23:26:51.236Z,12.32
2022-10-06T23:29:21.332Z,11.07
2022-10-06T23:31:50.782Z,13.55
2022-10-06T23:34:20.197Z,10.98
2022-10-06T23:36:50.175Z,14.52
2022-10-06T23:39:19.548Z,11.80
2022-10-06T23:41:50.263Z,10.48
2022-10-06T23:44:19.655Z,11.02
2022-10-06T23:46:49.011Z,10.82
2022-10-06T23:49:18.460Z,10.20
2022-10-06T23:51:47.979Z,11.95
2022-10-06T23:54:17.330Z,9.77
2022-10-06T23:56:46.846Z,9.77
2022-10-06T23:59:17.564Z,11.60
